KIRS/IRS METAR and TAF weather

Enter ICAO airport designator
Station Type Date Time Source
KIRS METAR 2019/02/17 16:15 UTC NOAA

KIRS 171615Z AUTO 09007KT 10SM OVC016 M02/M06 A2990 RMK AO2 T10251060


Station Type Date Time Source
KIRS Decoded METAR 2019/02/17 16:15 UTC NOAA

Sturgis, Kirsch Municipal Airport, MI, United States (KIRS) 41-48-46N 085-26-21W
Feb 17, 2019 - 11:15 AM EST / 2019.02.17 1615 UTC
Wind: from the E (090 degrees) at 8 MPH (7 KT):0
Visibility: 10 mile(s):0
Sky conditions: overcast
Temperature: 27.5 F (-2.5 C)
Windchill: 19 F (-7 C):1
Dew Point: 21.2 F (-6.0 C)
Relative Humidity: 76%
Pressure (altimeter): 29.9 in. Hg (1012 hPa)
ob: KIRS 171615Z AUTO 09007KT 10SM OVC016 M02/M06 A2990 RMK AO2 T10251060
cycle: 16

Station Type Date Time Source
KIRS TAF UTC NOAA

Error!


Example: see airport list